createdAt,value
2022-11-29T15:44:34.218Z,21.63
2022-11-29T15:47:23.537Z,20.83
2022-11-29T15:49:53.316Z,21.08
2022-11-29T15:52:31.059Z,19.67
2022-11-29T15:55:03.668Z,20.13
2022-11-29T15:57:36.442Z,19.30
2022-11-29T16:00:24.136Z,20.40
2022-11-29T16:03:02.619Z,20.00
2022-11-29T16:05:37.469Z,20.00
2022-11-29T16:08:13.883Z,19.42
2022-11-29T16:10:47.738Z,18.90
2022-11-29T16:13:36.211Z,18.58
2022-11-29T16:16:12.442Z,18.42
2022-11-29T16:18:42.780Z,19.17
2022-11-29T16:21:26.674Z,18.98
2022-11-29T16:23:55.647Z,20.48
2022-11-29T16:26:34.847Z,21.67
2022-11-29T16:29:03.569Z,19.83
2022-11-29T16:31:36.028Z,19.60
2022-11-29T16:34:22.240Z,20.27
2022-11-29T16:37:08.394Z,19.48
2022-11-29T16:39:38.645Z,18.50
2022-11-29T16:42:08.538Z,19.93
2022-11-29T16:44:41.944Z,19.88
2022-11-29T16:47:25.652Z,18.92
2022-11-29T16:50:02.641Z,19.45
2022-11-29T16:52:34.613Z,18.88
2022-11-29T16:55:02.295Z,18.85
2022-11-29T16:57:30.462Z,19.35
2022-11-29T16:59:58.354Z,18.95
2022-11-29T17:02:29.065Z,19.02
2022-11-29T17:04:58.284Z,19.77
2022-11-29T17:07:32.699Z,18.58
2022-11-29T17:10:00.533Z,18.83
2022-11-29T17:12:29.397Z,19.23
2022-11-29T17:14:57.034Z,19.70
2022-11-29T17:17:24.807Z,19.33
2022-11-29T17:19:53.609Z,19.77
2022-11-29T17:22:21.630Z,19.55
2022-11-29T17:24:50.298Z,20.13
2022-11-29T17:27:18.217Z,18.80
2022-11-29T17:29:45.927Z,18.70
2022-11-29T17:32:13.580Z,19.05
2022-11-29T17:34:41.442Z,19.30
2022-11-29T17:37:09.215Z,19.23
2022-11-29T17:39:37.002Z,19.17
2022-11-29T17:42:04.679Z,18.75
2022-11-29T17:44:34.157Z,19.58
2022-11-29T17:47:01.766Z,20.48
2022-11-29T17:49:30.532Z,18.95
2022-11-29T17:51:58.960Z,19.60
2022-11-29T17:54:26.945Z,20.85
2022-11-29T17:56:55.347Z,21.30
2022-11-29T17:59:23.138Z,21.05
2022-11-29T18:01:50.893Z,20.13
2022-11-29T18:04:18.824Z,19.88
2022-11-29T18:06:50.211Z,21.58
2022-11-29T18:09:20.033Z,20.70
2022-11-29T18:11:50.109Z,21.67
2022-11-29T18:14:21.456Z,21.67
2022-11-29T18:16:49.627Z,22.88
2022-11-29T18:19:19.745Z,21.55
2022-11-29T18:21:48.319Z,20.00
2022-11-29T18:24:16.004Z,22.58
2022-11-29T18:26:44.285Z,22.55
2022-11-29T18:29:12.747Z,22.73
2022-11-29T18:31:44.064Z,22.45
2022-11-29T18:34:13.404Z,22.77
2022-11-29T18:36:43.864Z,21.00
2022-11-29T18:39:16.847Z,21.98
2022-11-29T18:41:49.540Z,21.90
2022-11-29T18:44:21.908Z,21.23
2022-11-29T18:46:51.712Z,21.83
2022-11-29T18:49:20.488Z,20.70
2022-11-29T18:51:53.067Z,21.80
2022-11-29T18:54:23.063Z,21.48
2022-11-29T18:56:52.357Z,22.25
2022-11-29T18:59:22.420Z,22.35
2022-11-29T19:01:50.362Z,19.88
2022-11-29T19:04:20.827Z,20.73
2022-11-29T19:06:49.582Z,21.52
2022-11-29T19:09:21.465Z,20.30
2022-11-29T19:11:50.040Z,21.23
2022-11-29T19:14:18.643Z,20.88
2022-11-29T19:16:48.898Z,21.05
2022-11-29T19:19:18.875Z,20.20
2022-11-29T19:21:47.507Z,21.05
2022-11-29T19:24:18.000Z,19.90
2022-11-29T19:26:47.536Z,20.60
2022-11-29T19:29:15.981Z,21.17
2022-11-29T19:31:43.881Z,20.45
2022-11-29T19:34:11.713Z,20.50
2022-11-29T19:36:44.788Z,20.77
2022-11-29T19:39:17.070Z,21.33
2022-11-29T19:41:47.217Z,21.23
2022-11-29T19:44:15.647Z,19.48
2022-11-29T19:46:46.115Z,19.92
2022-11-29T19:49:13.785Z,21.30
2022-11-29T19:51:41.879Z,20.55
2022-11-29T19:54:10.649Z,20.30
2022-11-29T19:56:39.036Z,20.08
2022-11-29T19:59:08.132Z,20.25
2022-11-29T20:01:40.952Z,20.38
2022-11-29T20:04:11.710Z,19.90
2022-11-29T20:06:39.936Z,21.45
2022-11-29T20:09:07.978Z,20.35
2022-11-29T20:11:35.960Z,19.65
2022-11-29T20:14:05.843Z,19.25
2022-11-29T20:16:34.052Z,19.13
2022-11-29T20:19:02.019Z,20.20
2022-11-29T20:21:31.784Z,19.00
2022-11-29T20:24:05.863Z,20.33
2022-11-29T20:26:36.336Z,20.25
2022-11-29T20:29:06.218Z,19.55
2022-11-29T20:31:35.648Z,21.55
2022-11-29T20:34:06.898Z,20.92
2022-11-29T20:37:00.895Z,21.23
2022-11-29T20:39:37.906Z,20.35
2022-11-29T20:42:27.396Z,20.75
2022-11-29T20:44:57.911Z,20.90
2022-11-29T20:47:33.815Z,20.27
2022-11-29T20:50:01.881Z,19.65
2022-11-29T20:53:00.848Z,21.48
2022-11-29T20:55:28.687Z,20.67
2022-11-29T20:57:56.435Z,20.73
2022-11-29T21:00:24.422Z,19.83
2022-11-29T21:02:52.140Z,20.15
2022-11-29T21:05:19.978Z,21.17
2022-11-29T21:07:47.776Z,21.48
2022-11-29T21:10:15.744Z,21.90
2022-11-29T21:12:45.872Z,21.08
2022-11-29T21:15:15.340Z,20.30
2022-11-29T21:17:43.540Z,21.00
2022-11-29T21:20:37.883Z,21.38
2022-11-29T21:23:18.783Z,20.60
2022-11-29T21:26:10.434Z,20.95
2022-11-29T21:28:47.035Z,21.50
2022-11-29T21:31:18.517Z,22.15
2022-11-29T21:33:46.938Z,22.05
